Terminal Aerodrome Forecast
Issued by NWS Cleveland, OH

Home | Current Version | Previous Version | Text Only | Print | Product List | Glossary On
Versions: 1 2 3 4 5 6 7 8 9 10 11 12 13 14 15 16 17 18 19 20
000
FTUS41 KCLE 051120
TAFTOL
TAF
KTOL 051120Z 0512/0612 16006KT P6SM VCTS BKN060CB
      TEMPO 0512/0514 3SM -TSRA OVC025CB
     FM051500 20008KT P6SM SCT060
     FM052000 23008KT P6SM VCTS SCT050CB BKN120=

USA.gov is the U.S. government's official web portal to all federal, state and local government web resources and services.